CST,Max TemperatureF,Mean TemperatureF,Min TemperatureF,Max Dew PointF,MeanDew PointF,Min DewpointF,Max Humidity, Mean Humidity, Min Humidity, Max Sea Level PressureIn, Mean Sea Level PressureIn, Min Sea Level PressureIn, Max VisibilityMiles, Mean VisibilityMiles, Min VisibilityMiles, Max Wind SpeedMPH, Mean Wind SpeedMPH, Max Gust SpeedMPH,PrecipitationIn, CloudCover, Events, WindDirDegrees
2014-2-1,46,36,24,,,,,,,30.15,29.88,29.74,10,4,0,14,7,21,0.10,8,Rain,333
2014-2-2,25,19,12,25,21,12,100,98,87,30.35,30.25,30.11,10,10,9,14,10,17,0.00,6,,353
2014-2-3,34,20,7,21,12,7,100,72,37,30.41,30.33,30.27,10,10,10,7,4,,0.00,0,,47
2014-2-4,26,24,22,27,24,20,100,97,79,30.26,30.00,29.88,10,4,1,16,9,20,0.08,7,Rain-Snow,55
2014-2-5,23,15,7,23,12,2,100,91,73,30.66,30.35,29.95,10,10,4,17,11,25,0.00,8,Snow,319
2014-2-6,13,6,0,2,-2,-4,90,70,49,30.67,30.58,30.51,10,10,10,12,7,,0.00,4,,338
2014-2-7,21,10,0,10,4,-3,99,70,56,30.52,30.39,30.24,10,10,10,10,5,,0.00,6,Snow,120
2014-2-8,32,26,19,30,20,8,100,81,61,30.27,30.18,30.11,10,10,10,7,4,,0.00,8,,202
2014-2-9,28,22,17,28,25,18,100,100,91,30.36,30.21,30.08,10,8,4,12,6,,0.00,8,Rain,357
2014-2-10,21,16,10,17,9,1,100,81,51,30.48,30.41,30.33,10,9,5,10,8,,0.00,4,Snow,9
2014-2-11,28,16,4,5,2,0,82,57,33,30.53,30.43,30.31,10,10,10,8,5,,0.00,0,,55
2014-2-12,41,25,9,15,4,0,78,44,18,30.28,30.13,30.02,10,10,10,9,5,,0.00,0,,140
2014-2-13,50,36,22,37,26,15,100,69,40,30.00,29.88,29.78,10,10,10,13,6,22,0.00,1,,237
2014-2-14,44,32,20,43,31,20,100,98,87,30.13,29.83,29.60,10,10,6,20,8,28,0.06,6,Rain,281
2014-2-15,34,23,12,25,19,12,100,79,56,30.16,30.08,29.97,10,10,10,14,6,,0.00,4,,171
2014-2-16,39,33,27,36,32,28,100,93,73,30.24,30.13,30.04,10,10,10,15,6,,0.00,6,,36
2014-2-17,54,44,34,45,33,21,100,76,32,30.11,29.93,29.80,10,10,9,20,13,32,0.03,5,Rain,205
2014-2-18,64,48,31,31,27,21,79,43,26,30.08,29.93,29.79,10,10,10,22,8,31,0.00,0,,198
2014-2-19,58,48,37,38,30,24,81,44,26,30.07,29.89,29.70,10,10,10,21,7,28,0.00,5,,130
2014-2-20,72,54,36,62,50,24,100,84,35,29.83,29.57,29.33,10,9,2,31,12,48,0.15,7,Rain-Thunderstorm,186
2014-2-21,56,44,31,23,15,11,61,33,17,30.02,29.94,29.81,10,10,10,17,9,30,0.00,0,,241
2014-2-22,65,50,34,34,22,12,72,36,20,30.01,29.94,29.84,10,10,10,14,7,20,0.00,3,,189
2014-2-23,43,35,25,37,21,13,100,62,30,30.33,30.15,29.97,10,10,9,16,10,24,0.00,4,,24
2014-2-24,42,32,21,15,10,5,76,43,23,30.39,30.28,30.18,10,10,10,9,6,,0.00,3,,64
2014-2-25,33,26,18,19,15,10,93,62,38,30.36,30.27,30.19,10,10,5,17,7,22,0.00,6,Snow,3
2014-2-26,28,18,9,14,7,0,100,68,31,30.38,30.26,29.99,10,9,2,16,11,24,0.00,4,Snow,314
2014-2-27,36,28,19,12,3,-4,64,37,21,30.15,30.07,30.02,10,10,10,12,6,17,0.00,0,,353
2014-2-28,50,36,21,31,15,1,70,42,27,30.04,29.98,29.86,10,10,10,20,11,25,0.00,4,,157